Time;durP1;ratioP1;P1;durP2;ratioP2;P2;SDS_P1;SDS_P2;PMS_P1;PMS_P2;Temp;Humidity;BMP_temperature;BMP_pressure;BME280_temperature;BME280_humidity;BME280_pressure;Samples;Min_cycle;Max_cycle;Signal;HPM_P1;HPM_P2
2022/10/29 00:00:58;;;;;;;21.27;5.50;;;;;;;11.91;64.01;93878.59;2051449;69;20142;-76
2022/10/29 00:03:27;;;;;;;23.02;5.63;;;;;;;11.92;64.33;93868.81;2051537;70;20185;-76
2022/10/29 00:05:58;;;;;;;26.58;5.20;;;;;;;12.00;63.20;93874.31;2051445;69;20154;-76
2022/10/29 00:08:34;;;;;;;12.75;3.80;;;;;;;11.97;63.72;93873.44;2051594;70;20154;-77
2022/10/29 00:11:14;;;;;;;17.25;4.15;;;;;;;11.93;64.00;93870.31;2050932;70;20173;-77
2022/10/29 00:13:42;;;;;;;20.17;4.22;;;;;;;11.93;64.20;93875.94;2051660;70;20135;-78
2022/10/29 00:16:13;;;;;;;25.33;4.13;;;;;;;11.93;63.66;93878.78;2051068;70;20157;-77
2022/10/29 00:18:39;;;;;;;18.27;4.65;;;;;;;11.89;64.02;93872.81;2051448;70;20242;-77
2022/10/29 00:21:09;;;;;;;18.30;4.70;;;;;;;11.90;63.63;93877.88;2051440;69;20150;-77
2022/10/29 00:23:34;;;;;;;19.63;4.43;;;;;;;11.82;64.26;93874.47;2051297;70;20162;-76
2022/10/29 00:26:02;;;;;;;16.73;4.78;;;;;;;11.86;63.45;93874.00;2051240;70;20131;-76
2022/10/29 00:28:28;;;;;;;16.63;3.83;;;;;;;11.83;63.65;93869.56;2051226;70;20154;-77
2022/10/29 00:30:53;;;;;;;17.15;3.60;;;;;;;11.83;63.67;93863.91;2051087;69;20542;-76
2022/10/29 00:33:20;;;;;;;15.82;4.15;;;;;;;11.83;63.84;93866.72;2051359;70;20150;-77
2022/10/29 00:35:56;;;;;;;15.85;4.10;;;;;;;11.81;63.63;93867.28;2051002;69;20146;-77
2022/10/29 00:38:22;;;;;;;17.90;3.67;;;;;;;11.81;64.40;93860.91;2051616;69;20165;-77
2022/10/29 00:40:48;;;;;;;20.40;3.63;;;;;;;11.40;65.93;93867.03;2051933;70;20498;-77
2022/10/29 00:43:19;;;;;;;13.30;4.13;;;;;;;11.58;64.81;93870.50;2052674;70;20138;-77
2022/10/29 00:45:58;;;;;;;13.77;4.30;;;;;;;11.61;64.51;93872.16;2051864;70;20158;-76
2022/10/29 00:48:27;;;;;;;15.95;4.43;;;;;;;11.53;64.88;93871.53;2051471;70;20142;-76
2022/10/29 00:50:55;;;;;;;15.77;3.92;;;;;;;11.53;64.82;93870.78;2051690;70;20625;-77
2022/10/29 00:53:27;;;;;;;17.00;3.75;;;;;;;11.54;64.62;93877.91;2051335;70;20165;-75
2022/10/29 00:55:54;;;;;;;17.65;4.63;;;;;;;11.62;64.00;93875.72;2052089;69;20189;-76
2022/10/29 00:58:21;;;;;;;16.33;4.13;;;;;;;11.61;64.41;93868.59;2051524;70;20268;-77
2022/10/29 01:00:48;;;;;;;18.98;4.57;;;;;;;11.62;63.48;93867.25;2051842;69;20606;-76
2022/10/29 01:03:14;;;;;;;11.50;3.92;;;;;;;11.57;63.88;93857.75;2051300;70;20150;-75
2022/10/29 01:05:41;;;;;;;14.32;4.00;;;;;;;11.56;64.56;93872.44;2051863;70;20235;-76
2022/10/29 01:08:10;;;;;;;22.63;4.20;;;;;;;11.54;64.69;93872.28;2051741;70;20154;-76
2022/10/29 01:11:18;;;;;;;17.13;3.92;;;;;;;11.61;63.43;93872.16;2051951;70;20142;-75
2022/10/29 01:14:05;;;;;;;16.52;4.03;;;;;;;11.44;64.60;93875.81;2052032;70;20154;-76
2022/10/29 01:16:58;;;;;;;14.10;4.03;;;;;;;11.42;64.23;93863.66;2051138;69;20173;-76
2022/10/29 01:19:45;;;;;;;11.90;4.30;;;;;;;11.39;64.96;93864.81;2051413;70;20130;-76
2022/10/29 01:22:20;;;;;;;16.63;4.20;;;;;;;11.44;64.63;93858.88;2051853;69;20158;-76
2022/10/29 01:25:12;;;;;;;18.83;4.15;;;;;;;11.45;64.08;93854.75;2051672;70;20135;-76
2022/10/29 01:28:15;;;;;;;15.70;3.70;;;;;;;11.29;65.13;93861.97;2048159;70;20142;-76
2022/10/29 01:30:59;;;;;;;;;;;;;;;11.35;64.47;93859.59;2051982;70;20146;-77
2022/10/29 01:33:44;;;;;;;13.57;3.83;;;;;;;11.34;64.95;93857.38;2051722;70;20147;-76
2022/10/29 01:36:32;;;;;;;18.05;4.18;;;;;;;11.36;64.18;93855.47;2051629;69;20146;-76
2022/10/29 01:39:03;;;;;;;18.20;4.13;;;;;;;11.34;64.23;93857.38;2051640;70;20595;-77
2022/10/29 01:41:43;;;;;;;13.05;3.65;;;;;;;11.21;65.69;93861.34;2051751;69;20598;-76
2022/10/29 01:44:46;;;;;;;13.45;3.72;;;;;;;11.28;65.11;93860.50;2051115;70;20233;-77
2022/10/29 01:47:17;;;;;;;14.90;4.05;;;;;;;11.29;64.50;93859.16;2051561;69;20166;-76
2022/10/29 01:49:46;;;;;;;20.83;4.25;;;;;;;11.28;64.63;93854.13;2051631;69;20146;-77
2022/10/29 01:52:17;;;;;;;19.40;3.92;;;;;;;11.29;64.06;93855.59;2051874;70;20221;-77
2022/10/29 01:54:45;;;;;;;19.30;4.38;;;;;;;11.29;63.78;93850.69;2051723;70;20540;-76
2022/10/29 01:57:27;;;;;;;16.77;3.33;;;;;;;11.28;64.30;93843.56;2050939;70;20146;-76
2022/10/29 01:59:57;;;;;;;13.32;3.50;;;;;;;11.19;64.62;93841.47;2051866;69;20217;-76
2022/10/29 02:02:41;;;;;;;18.48;3.70;;;;;;;11.11;66.09;93844.41;2052034;69;20154;-76
2022/10/29 02:05:39;;;;;;;20.13;3.65;;;;;;;11.19;64.50;93847.09;2051661;70;20151;-76
2022/10/29 02:08:11;;;;;;;15.70;4.13;;;;;;;11.22;64.38;93839.53;2051714;70;20150;-76
2022/10/29 02:10:50;;;;;;;14.02;4.07;;;;;;;11.19;64.46;93844.28;2051998;69;20220;-76
2022/10/29 02:13:21;;;;;;;14.30;4.03;;;;;;;11.16;64.54;93839.81;2051695;70;20158;-76
2022/10/29 02:15:52;;;;;;;14.50;4.20;;;;;;;11.14;64.60;93840.41;2051774;70;20609;-76
2022/10/29 02:18:20;;;;;;;13.98;4.03;;;;;;;11.15;64.09;93839.06;2050890;70;20245;-76
2022/10/29 02:20:46;;;;;;;15.45;4.00;;;;;;;11.18;64.01;93835.09;2051521;69;20170;-76
2022/10/29 02:23:18;;;;;;;14.60;3.80;;;;;;;11.18;64.17;93842.81;2051550;70;20189;-77
2022/10/29 02:25:43;;;;;;;15.70;4.20;;;;;;;11.14;63.99;93843.22;2051473;69;20153;-76
2022/10/29 02:28:09;;;;;;;15.10;3.20;;;;;;;11.13;64.14;93843.81;2051706;69;20154;-76
2022/10/29 02:30:34;;;;;;;15.35;3.70;;;;;;;11.06;64.51;93836.22;2054604;70;20261;-76
2022/10/29 02:33:00;;;;;;;17.27;4.03;;;;;;;11.07;64.35;93824.34;2052224;69;20165;-77
2022/10/29 02:35:26;;;;;;;16.30;3.97;;;;;;;11.03;64.73;93832.50;2051867;69;20182;-77
2022/10/29 02:37:51;;;;;;;19.52;3.65;;;;;;;11.02;64.21;93831.00;2051646;69;20252;-76
2022/10/29 02:40:17;;;;;;;16.65;3.65;;;;;;;11.03;64.51;93826.84;2051444;69;20233;-76
2022/10/29 02:42:43;;;;;;;13.55;3.95;;;;;;;10.73;66.44;93833.72;2051520;69;20236;-77
2022/10/29 02:45:09;;;;;;;16.35;3.80;;;;;;;10.64;66.92;93840.03;2050791;70;20172;-76
2022/10/29 02:47:41;;;;;;;15.50;3.70;;;;;;;10.82;65.14;93830.19;2051037;70;20633;-77
2022/10/29 02:50:12;;;;;;;19.25;3.78;;;;;;;10.84;65.12;93829.59;2051587;69;20161;-76
2022/10/29 02:52:38;;;;;;;13.15;4.47;;;;;;;10.89;65.51;93823.69;2051415;69;20154;-76
2022/10/29 02:55:05;;;;;;;14.82;3.45;;;;;;;10.89;65.43;93820.88;2051661;70;20491;-77
2022/10/29 02:57:30;;;;;;;19.60;4.20;;;;;;;10.87;64.79;93815.09;2051751;69;20216;-77
2022/10/29 02:59:56;;;;;;;18.83;4.18;;;;;;;10.92;64.94;93816.88;2051723;69;20178;-77
2022/10/29 03:02:21;;;;;;;21.80;5.35;;;;;;;10.92;64.73;93807.69;2051120;69;20154;-77
2022/10/29 03:04:47;;;;;;;12.90;3.97;;;;;;;10.91;64.41;93809.78;2051667;70;20146;-77
2022/10/29 03:07:13;;;;;;;18.58;4.35;;;;;;;10.88;64.58;93816.56;2051542;70;20142;-77
2022/10/29 03:09:38;;;;;;;20.40;4.13;;;;;;;10.94;63.88;93816.28;2051646;70;20138;-77
2022/10/29 03:12:04;;;;;;;15.82;4.05;;;;;;;10.86;64.84;93821.31;2051874;69;20228;-77
2022/10/29 03:14:30;;;;;;;18.08;4.05;;;;;;;10.81;65.11;93819.50;2051607;69;20134;-77
2022/10/29 03:16:56;;;;;;;16.23;4.53;;;;;;;10.81;65.06;93817.44;2050916;70;20578;-77
2022/10/29 03:19:23;;;;;;;17.73;4.32;;;;;;;10.80;65.35;93820.84;2051683;70;20181;-77
2022/10/29 03:21:48;;;;;;;12.93;3.58;;;;;;;10.76;64.92;93812.06;2051091;69;20138;-77
2022/10/29 03:24:14;;;;;;;14.07;3.53;;;;;;;10.79;65.05;93814.47;2051789;70;20213;-77
2022/10/29 03:26:39;;;;;;;16.15;3.58;;;;;;;10.76;64.91;93820.50;2051762;69;20141;-77
2022/10/29 03:29:05;;;;;;;16.92;3.78;;;;;;;10.69;65.96;93814.41;2051675;69;20188;-77
2022/10/29 03:31:30;;;;;;;18.92;4.35;;;;;;;10.71;65.34;93813.81;2051497;69;20141;-77
2022/10/29 03:33:57;;;;;;;18.20;4.25;;;;;;;10.77;64.99;93814.31;2051648;69;20249;-77
2022/10/29 03:36:22;;;;;;;20.98;4.43;;;;;;;10.80;65.08;93801.84;2051662;69;20146;-77
2022/10/29 03:38:48;;;;;;;21.85;4.50;;;;;;;10.79;64.92;93813.72;2051617;70;20162;-77
2022/10/29 03:41:14;;;;;;;20.42;4.38;;;;;;;10.40;67.29;93811.44;2051611;69;20145;-77
2022/10/29 03:43:39;;;;;;;20.13;5.47;;;;;;;10.67;66.21;93813.50;2051611;70;20138;-77
2022/10/29 03:46:05;;;;;;;17.25;4.00;;;;;;;10.73;65.74;93816.81;2051573;69;20267;-77
2022/10/29 03:48:31;;;;;;;16.25;3.65;;;;;;;10.72;66.02;93814.56;2051749;69;20169;-77
2022/10/29 03:51:04;;;;;;;18.10;3.90;;;;;;;10.76;65.54;93815.63;2051622;69;20517;-77
2022/10/29 03:53:31;;;;;;;13.00;3.60;;;;;;;10.76;66.03;93809.25;2051567;70;20130;-77
2022/10/29 03:55:57;;;;;;;18.02;4.53;;;;;;;10.77;65.93;93807.94;2051608;69;20237;-77
2022/10/29 03:58:24;;;;;;;16.52;4.15;;;;;;;10.82;65.07;93810.47;2051030;70;20248;-77
2022/10/29 04:00:58;;;;;;;21.77;4.85;;;;;;;10.87;64.60;93820.72;2050915;70;20142;-77
2022/10/29 04:03:28;;;;;;;24.40;4.82;;;;;;;10.85;65.43;93820.56;2051544;70;20213;-77
2022/10/29 04:05:54;;;;;;;15.65;4.13;;;;;;;10.82;65.61;93810.47;2051196;70;20146;-76
2022/10/29 04:08:20;;;;;;;14.88;4.03;;;;;;;10.86;64.99;93830.50;2051479;70;20205;-77
2022/10/29 04:10:46;;;;;;;17.60;4.75;;;;;;;10.92;65.01;93830.97;2051624;69;20146;-77
2022/10/29 04:13:14;;;;;;;16.27;3.95;;;;;;;10.91;65.62;93829.50;2053523;70;20166;-77
2022/10/29 04:15:40;;;;;;;19.73;6.32;;;;;;;10.92;65.21;93824.59;2053788;70;20237;-77
2022/10/29 04:18:06;;;;;;;27.58;11.02;;;;;;;10.90;66.63;93819.56;2052052;70;20590;-77
2022/10/29 04:20:32;;;;;;;28.33;9.75;;;;;;;10.97;65.39;93817.22;2051122;70;20693;-77
2022/10/29 04:22:58;;;;;;;21.95;8.35;;;;;;;10.85;66.85;93808.53;2051784;69;20147;-77
2022/10/29 04:25:23;;;;;;;24.05;8.30;;;;;;;10.84;66.70;93801.44;2051073;70;20586;-76
2022/10/29 04:27:49;;;;;;;20.70;6.00;;;;;;;10.96;66.25;93801.63;2051701;70;20146;-77
2022/10/29 04:30:15;;;;;;;21.60;6.22;;;;;;;11.05;64.80;93803.75;2051853;70;20223;-77
2022/10/29 04:32:40;;;;;;;21.48;7.07;;;;;;;11.09;64.97;93812.50;2051952;70;20487;-77
2022/10/29 04:35:06;;;;;;;25.52;6.13;;;;;;;11.08;64.92;93811.00;2052035;69;20177;-77
2022/10/29 04:37:32;;;;;;;22.40;6.30;;;;;;;11.10;64.69;93805.53;2051961;69;20511;-78
2022/10/29 04:39:57;;;;;;;23.35;5.85;;;;;;;11.05;64.61;93803.75;2051923;69;20145;-77
2022/10/29 04:42:23;;;;;;;26.33;6.30;;;;;;;11.03;66.10;93809.94;2051568;70;20142;-77
2022/10/29 04:44:48;;;;;;;31.33;9.75;;;;;;;11.07;65.51;93809.53;2051820;69;20574;-77
2022/10/29 04:47:14;;;;;;;20.13;7.43;;;;;;;11.13;65.34;93804.34;2051940;70;20140;-77
2022/10/29 04:49:40;;;;;;;22.83;7.55;;;;;;;11.17;65.25;93802.56;2051923;69;20250;-77
2022/10/29 04:52:06;;;;;;;22.08;6.80;;;;;;;11.19;64.07;93805.56;2051916;69;20161;-77
2022/10/29 04:54:31;;;;;;;20.10;6.43;;;;;;;11.09;66.94;93810.44;2052047;70;20177;-77
2022/10/29 04:56:57;;;;;;;24.52;7.40;;;;;;;11.16;64.91;93815.19;2052010;69;20153;-77
2022/10/29 04:59:23;;;;;;;19.73;6.75;;;;;;;11.25;65.46;93821.44;2051375;70;20162;-77
2022/10/29 05:01:49;;;;;;;21.92;6.00;;;;;;;11.30;64.68;93817.59;2051784;70;20205;-77
2022/10/29 05:04:14;;;;;;;24.35;5.70;;;;;;;11.30;64.59;93809.88;2052103;69;20157;-77
2022/10/29 05:06:40;;;;;;;21.98;6.32;;;;;;;11.37;66.29;93811.09;2051311;70;20139;-77
2022/10/29 05:09:05;;;;;;;27.02;6.95;;;;;;;11.38;65.59;93813.31;2051771;70;20149;-77
2022/10/29 05:11:31;;;;;;;22.65;6.72;;;;;;;11.40;63.93;93815.53;2051773;69;20253;-77
2022/10/29 05:13:57;;;;;;;28.17;8.95;;;;;;;11.40;63.74;93801.44;2051681;69;20142;-77
2022/10/29 05:16:22;;;;;;;18.50;7.57;;;;;;;11.42;64.42;93810.06;2051280;70;20591;-77
2022/10/29 05:18:48;;;;;;;21.30;8.38;;;;;;;11.43;63.87;93809.47;2051780;69;20670;-77
2022/10/29 05:21:14;;;;;;;24.67;9.85;;;;;;;11.42;64.44;93804.44;2051690;70;20139;-77
2022/10/29 05:23:40;;;;;;;26.38;9.95;;;;;;;11.41;64.03;93805.78;2051661;69;20562;-77
2022/10/29 05:26:05;;;;;;;25.63;9.30;;;;;;;11.36;64.30;93803.97;2051762;69;20606;-77
2022/10/29 05:28:31;;;;;;;30.38;9.60;;;;;;;11.44;63.49;93801.75;2051804;70;20506;-77
2022/10/29 05:30:59;;;;;;;28.40;9.80;;;;;;;11.39;65.34;93805.59;2050973;70;20131;-77
2022/10/29 05:33:25;;;;;;;26.55;8.57;;;;;;;11.47;65.93;93797.03;2051754;69;20155;-76
2022/10/29 05:35:56;;;;;;;27.77;8.18;;;;;;;11.47;64.71;93797.03;2051688;69;20158;-76
2022/10/29 05:38:21;;;;;;;22.42;8.55;;;;;;;11.36;64.76;93795.50;2051773;69;20864;-76
2022/10/29 05:40:47;;;;;;;32.55;11.90;;;;;;;11.20;66.90;93797.84;2051563;70;20251;-75
2022/10/29 05:43:15;;;;;;;28.13;10.10;;;;;;;11.33;64.97;93791.06;2051566;69;20142;-77
2022/10/29 05:45:41;;;;;;;30.38;9.55;;;;;;;11.35;64.59;93797.56;2048428;70;20570;-77
2022/10/29 05:48:07;;;;;;;27.08;10.77;;;;;;;11.25;65.70;93793.25;2051283;70;20154;-78
2022/10/29 05:50:36;;;;;;;26.63;9.40;;;;;;;11.30;65.96;93804.25;2051604;69;20138;-78
2022/10/29 05:53:10;;;;;;;29.85;9.90;;;;;;;11.27;65.62;93804.69;2051672;69;20142;-77
2022/10/29 05:55:37;;;;;;;26.95;9.15;;;;;;;11.28;66.44;93806.94;2051793;70;20475;-76
2022/10/29 05:58:13;;;;;;;25.15;8.55;;;;;;;11.27;65.05;93802.63;2056050;69;20197;-76
2022/10/29 06:00:44;;;;;;;26.15;8.75;;;;;;;11.30;65.02;93809.16;2052071;69;20142;-77
2022/10/29 06:03:18;;;;;;;23.13;6.53;;;;;;;11.10;68.85;93811.91;2051759;69;20173;-77
2022/10/29 06:05:49;;;;;;;23.70;8.23;;;;;;;11.17;67.13;93816.66;2051714;69;20146;-77
2022/10/29 06:08:15;;;;;;;23.10;7.78;;;;;;;11.20;66.43;93821.13;2051097;70;20178;-76
2022/10/29 06:10:41;;;;;;;31.40;8.23;;;;;;;11.18;66.17;93826.63;2051783;69;20138;-76
2022/10/29 06:13:16;;;;;;;24.98;9.45;;;;;;;11.17;65.30;93825.13;2051830;69;20518;-76
2022/10/29 06:15:42;;;;;;;23.90;8.35;;;;;;;11.13;66.25;93815.63;2051675;69;20169;-77
2022/10/29 06:18:08;;;;;;;19.45;7.82;;;;;;;11.15;65.90;93821.41;2051241;70;20150;-77
2022/10/29 06:20:35;;;;;;;21.98;8.45;;;;;;;11.16;65.51;93822.91;2051736;69;20625;-77
2022/10/29 06:23:01;;;;;;;26.30;8.32;;;;;;;11.15;66.87;93824.25;2051994;69;20149;-77
2022/10/29 06:25:27;;;;;;;24.67;8.48;;;;;;;11.21;66.14;93816.25;2051989;69;20155;-77
2022/10/29 06:28:02;;;;;;;25.98;9.07;;;;;;;11.23;66.10;93824.13;2051792;69;20233;-77
2022/10/29 06:30:33;;;;;;;21.42;9.13;;;;;;;11.23;66.25;93824.88;2051800;69;20134;-77
2022/10/29 06:32:59;;;;;;;23.67;8.75;;;;;;;11.25;66.54;93833.47;2051815;69;20145;-78
2022/10/29 06:35:27;;;;;;;21.33;9.10;;;;;;;11.26;66.23;93829.31;2051846;69;20146;-76
2022/10/29 06:37:53;;;;;;;19.67;9.50;;;;;;;11.35;63.59;93825.78;2051802;69;20173;-76
2022/10/29 06:40:19;;;;;;;26.67;11.52;;;;;;;11.40;65.16;93830.38;2051824;69;20150;-77
2022/10/29 06:42:44;;;;;;;29.60;10.88;;;;;;;11.40;67.18;93821.19;2051353;70;20253;-77
2022/10/29 06:45:11;;;;;;;29.80;15.23;;;;;;;11.32;67.05;93835.44;2051094;70;20618;-75
2022/10/29 06:47:43;;;;;;;33.47;13.32;;;;;;;11.54;66.41;93830.72;2051980;69;20172;-77
2022/10/29 06:50:11;;;;;;;28.25;13.27;;;;;;;11.61;66.10;93835.47;2051701;69;20149;-76
2022/10/29 06:52:37;;;;;;;25.00;13.38;;;;;;;11.75;65.34;93830.16;2051591;69;20170;-77
2022/10/29 06:55:05;;;;;;;27.92;12.98;;;;;;;11.83;63.26;93836.44;2051759;69;20158;-76
2022/10/29 06:57:32;;;;;;;31.17;11.52;;;;;;;11.92;63.06;93841.34;2051844;69;20158;-76
2022/10/29 06:59:58;;;;;;;26.45;11.80;;;;;;;11.71;68.15;93839.06;2051638;69;20496;-77
2022/10/29 07:02:24;;;;;;;31.33;12.30;;;;;;;11.94;65.09;93844.31;2053199;69;20138;-76
2022/10/29 07:04:50;;;;;;;26.88;13.38;;;;;;;11.97;63.75;93850.13;2052941;70;20138;-77
2022/10/29 07:07:16;;;;;;;31.73;14.30;;;;;;;12.11;64.12;93842.69;2052055;69;20158;-77
2022/10/29 07:09:42;;;;;;;38.50;15.32;;;;;;;12.10;64.66;93841.22;2051876;70;20657;-77
2022/10/29 07:12:10;;;;;;;28.15;14.13;;;;;;;12.15;62.96;93843.72;2051801;69;20216;-76
2022/10/29 07:14:37;;;;;;;28.95;13.93;;;;;;;12.17;63.98;93831.84;2051277;70;20158;-77
2022/10/29 07:17:02;;;;;;;27.92;11.73;;;;;;;12.16;65.04;93828.28;2051760;69;20138;-77
2022/10/29 07:19:31;;;;;;;25.15;10.48;;;;;;;12.24;64.02;93839.41;2051685;69;20245;-77
2022/10/29 07:21:57;;;;;;;28.67;11.63;;;;;;;11.86;67.87;93848.59;2051730;69;20145;-76
2022/10/29 07:24:23;;;;;;;28.65;13.38;;;;;;;11.92;67.02;93854.72;2051744;69;20662;-76
2022/10/29 07:26:49;;;;;;;32.28;12.23;;;;;;;11.98;66.86;93848.78;2051764;70;20158;-75
2022/10/29 07:29:14;;;;;;;26.70;11.27;;;;;;;12.13;65.38;93851.28;2051690;69;20216;-76
2022/10/29 07:31:40;;;;;;;26.95;10.55;;;;;;;12.16;64.99;93845.22;2051504;69;20233;-77
2022/10/29 07:34:06;;;;;;;31.38;11.30;;;;;;;12.23;64.42;93852.03;2051616;70;20139;-77
2022/10/29 07:36:32;;;;;;;27.73;10.95;;;;;;;12.15;66.08;93843.00;2051653;69;20140;-77
2022/10/29 07:38:58;;;;;;;27.45;10.27;;;;;;;12.25;66.08;93848.63;2051650;69;20139;-75
2022/10/29 07:41:23;;;;;;;24.20;11.15;;;;;;;12.26;65.84;93848.03;2052043;70;20510;-77
2022/10/29 07:43:49;;;;;;;28.05;11.43;;;;;;;12.25;66.12;93855.03;2055327;70;20463;-76
2022/10/29 07:46:15;;;;;;;23.33;10.15;;;;;;;12.36;64.60;93859.31;2052069;70;20495;-77
2022/10/29 07:48:40;;;;;;;31.42;10.60;;;;;;;12.43;63.82;93864.81;2051856;69;20139;-76
2022/10/29 07:51:06;;;;;;;29.33;10.32;;;;;;;12.42;64.99;93865.41;2051683;69;20534;-76
2022/10/29 07:53:31;;;;;;;32.03;11.30;;;;;;;12.49;63.39;93866.59;2051809;69;20654;-77
2022/10/29 07:55:58;;;;;;;30.33;11.00;;;;;;;12.51;63.84;93858.25;2051644;69;20213;-77
2022/10/29 07:58:24;;;;;;;30.02;11.35;;;;;;;12.57;64.12;93864.34;2051630;70;20503;-78
2022/10/29 08:00:51;;;;;;;23.73;11.30;;;;;;;12.61;62.19;93859.75;2051528;69;20153;-77
2022/10/29 08:03:17;;;;;;;27.02;11.45;;;;;;;12.51;64.22;93859.03;2051670;69;20189;-78
2022/10/29 08:05:46;;;;;;;23.85;10.73;;;;;;;12.64;64.42;93854.97;2051454;69;20150;-78
2022/10/29 08:08:11;;;;;;;24.40;10.80;;;;;;;12.82;65.40;93861.19;2051481;69;20212;-77
2022/10/29 08:10:38;;;;;;;32.45;11.10;;;;;;;13.05;65.78;93860.66;2051536;70;20534;-77
2022/10/29 08:13:05;;;;;;;28.00;9.93;;;;;;;13.33;67.59;93859.09;2051628;70;20145;-77
2022/10/29 08:15:33;;;;;;;39.30;10.95;;;;;;;13.53;66.97;93857.66;2051474;70;20162;-79
2022/10/29 08:17:59;;;;;;;30.27;11.80;;;;;;;13.78;65.17;93860.06;2048330;70;20153;-77
2022/10/29 08:20:28;;;;;;;32.20;11.95;;;;;;;13.91;65.79;93842.53;2051607;70;20233;-77
2022/10/29 08:22:54;;;;;;;35.65;11.27;;;;;;;14.21;65.15;93854.41;2050989;70;20157;-77
2022/10/29 08:25:20;;;;;;;30.83;9.70;;;;;;;14.41;63.69;93850.06;2051089;70;20138;-77
2022/10/29 08:27:57;;;;;;;34.40;10.48;;;;;;;14.83;63.33;93853.44;2050989;70;20150;-77
2022/10/29 08:30:22;;;;;;;33.33;9.25;;;;;;;15.17;62.97;93857.69;2050870;70;20189;-77
2022/10/29 08:32:48;;;;;;;38.08;9.52;;;;;;;15.40;63.21;93863.41;2050918;70;20151;-79
2022/10/29 08:35:14;;;;;;;26.40;9.45;;;;;;;15.53;60.78;93847.81;2051505;70;20546;-79
2022/10/29 08:37:44;;;;;;;31.27;11.45;;;;;;;15.83;61.51;93845.38;2051581;70;20610;-76
2022/10/29 08:40:28;;;;;;;34.22;11.75;;;;;;;16.04;59.87;93842.38;2050891;70;20189;-76
2022/10/29 08:43:21;;;;;;;27.13;9.27;;;;;;;16.48;59.89;93834.94;2051593;70;20587;-76
2022/10/29 08:45:50;;;;;;;28.60;9.57;;;;;;;16.76;59.21;93835.84;2051573;70;20150;-76
2022/10/29 08:48:21;;;;;;;30.63;10.45;;;;;;;17.12;58.21;93834.28;2051551;70;20150;-77
2022/10/29 08:50:58;;;;;;;31.20;10.55;;;;;;;17.25;55.89;93827.16;2051501;70;20154;-75
2022/10/29 08:53:32;;;;;;;29.42;10.30;;;;;;;17.34;54.67;93831.91;2048258;70;20527;-76
2022/10/29 08:55:58;;;;;;;37.35;9.65;;;;;;;17.69;54.71;93837.31;2050919;70;20232;-78
2022/10/29 08:58:59;;;;;;;28.42;8.82;;;;;;;18.15;53.48;93835.44;2051462;70;20182;-76
2022/10/29 09:01:24;;;;;;;26.00;10.45;;;;;;;18.35;51.83;93838.56;2047295;70;20603;-77
2022/10/29 09:03:50;;;;;;;27.10;7.70;;;;;;;18.28;52.45;93831.81;2049436;70;20150;-77
2022/10/29 09:06:22;;;;;;;22.02;6.97;;;;;;;18.39;53.55;93835.91;2050953;70;20189;-77
2022/10/29 09:09:00;;;;;;;25.98;7.63;;;;;;;18.81;51.76;93838.66;2051404;70;20205;-77
2022/10/29 09:11:44;;;;;;;26.90;6.88;;;;;;;18.88;51.62;93841.19;2051328;69;20259;-77
2022/10/29 09:14:19;;;;;;;23.05;7.13;;;;;;;19.00;51.18;93841.75;2051537;70;20150;-77
2022/10/29 09:16:52;;;;;;;26.85;7.25;;;;;;;19.10;50.44;93837.91;2051801;70;20166;-77
2022/10/29 09:19:30;;;;;;;29.08;7.63;;;;;;;19.28;51.04;93844.47;2051457;70;20154;-77
2022/10/29 09:22:13;;;;;;;22.02;6.47;;;;;;;19.31;50.41;93831.78;2053948;69;20235;-77
2022/10/29 09:24:46;;;;;;;36.55;6.90;;;;;;;19.43;49.93;93835.19;2055674;69;20157;-76
2022/10/29 09:27:46;;;;;;;39.45;7.68;;;;;;;19.54;49.28;93827.81;2056191;69;20138;-79
2022/10/29 09:30:16;;;;;;;420.85;24.52;;;;;;;19.46;48.90;93824.59;2063044;69;20117;-80
2022/10/29 09:33:15;;;;;;;51.10;9.27;;;;;;;19.54;48.83;93831.41;2054956;69;20146;-79
2022/10/29 09:36:12;;;;;;;34.15;7.22;;;;;;;19.31;49.91;93826.06;2054395;69;20180;-81
2022/10/29 09:38:58;;;;;;;21.48;4.55;;;;;;;19.30;51.32;93818.88;2054206;70;20560;-79
2022/10/29 09:41:29;;;;;;;22.88;5.13;;;;;;;19.42;51.67;93816.56;2054514;69;20146;-79
2022/10/29 09:43:58;;;;;;;29.15;5.45;;;;;;;19.76;50.76;93803.13;2054418;69;20146;-79
2022/10/29 09:46:49;;;;;;;20.67;5.32;;;;;;;20.28;47.95;93806.78;2054216;69;20201;-79
2022/10/29 09:49:23;;;;;;;22.20;5.85;;;;;;;20.38;47.64;93809.34;2054377;70;20242;-79
2022/10/29 09:52:19;;;;;;;20.75;6.82;;;;;;;20.94;47.40;93812.38;2054305;70;20625;-79
2022/10/29 09:54:48;;;;;;;30.05;8.48;;;;;;;21.25;45.54;93820.00;2053734;70;20216;-78
2022/10/29 09:57:20;;;;;;;22.08;5.60;;;;;;;21.39;46.22;93819.84;2054307;69;20581;-79
2022/10/29 09:59:52;;;;;;;31.33;7.13;;;;;;;21.70;46.62;93813.13;2054244;69;20155;-79
2022/10/29 10:02:36;;;;;;;27.48;8.60;;;;;;;21.93;44.95;93811.81;2054507;70;20259;-79
2022/10/29 10:05:29;;;;;;;25.30;5.75;;;;;;;22.02;43.90;93811.44;2054389;70;20145;-78
2022/10/29 10:08:05;;;;;;;;;;;;;;;22.14;43.82;93808.31;2053520;70;20168;-79
2022/10/29 10:10:33;;;;;;;20.52;4.60;;;;;;;22.62;40.84;93807.78;2054599;69;20136;-78
2022/10/29 10:13:04;;;;;;;18.15;4.80;;;;;;;22.75;41.15;93803.91;2055155;69;20146;-79
2022/10/29 10:15:33;;;;;;;18.02;4.97;;;;;;;22.68;40.94;93794.38;2055180;69;20232;-78
2022/10/29 10:18:05;;;;;;;22.77;6.40;;;;;;;22.86;40.88;93793.47;2055195;69;20538;-78
2022/10/29 10:20:33;;;;;;;21.15;5.75;;;;;;;22.91;41.03;93797.97;2055196;69;20148;-79
2022/10/29 10:22:59;;;;;;;15.30;4.05;;;;;;;23.03;40.47;93787.63;2055140;69;20142;-80
2022/10/29 10:25:36;;;;;;;18.88;3.90;;;;;;;23.49;40.66;93787.59;2055092;69;20162;-79
2022/10/29 10:28:03;;;;;;;19.40;4.10;;;;;;;24.17;38.50;93787.38;2055047;69;20145;-79
2022/10/29 10:30:29;;;;;;;17.77;4.93;;;;;;;24.02;39.18;93779.78;2054554;70;20672;-78
2022/10/29 10:33:11;;;;;;;28.65;13.23;;;;;;;25.15;38.13;93771.88;2054551;69;20150;-79
2022/10/29 10:35:38;;;;;;;15.65;3.92;;;;;;;24.68;37.95;93774.34;2055233;69;20569;-78
2022/10/29 10:38:11;;;;;;;21.10;5.35;;;;;;;25.88;35.70;93770.63;2056089;69;20217;-78
2022/10/29 10:40:37;;;;;;;21.08;4.13;;;;;;;27.38;31.33;93774.00;2055401;69;20216;-78
2022/10/29 10:43:03;;;;;;;14.02;3.28;;;;;;;28.02;30.50;93765.50;2055882;69;20181;-78
2022/10/29 10:45:36;;;;;;;14.13;4.20;;;;;;;27.95;29.96;93763.22;2055198;69;20146;-78
2022/10/29 10:48:08;;;;;;;15.95;4.25;;;;;;;28.27;30.43;93762.88;2055709;69;20162;-78
2022/10/29 10:50:35;;;;;;;18.07;7.37;;;;;;;28.88;31.10;93754.81;2056641;69;20179;-77
2022/10/29 10:53:21;;;;;;;20.33;6.75;;;;;;;30.85;29.65;93749.31;2052202;70;20153;-78
2022/10/29 10:55:53;;;;;;;16.15;4.88;;;;;;;30.22;28.35;93752.06;2055394;69;20157;-77
2022/10/29 10:58:24;;;;;;;19.67;4.22;;;;;;;31.41;29.00;93746.44;2056315;69;20300;-78
2022/10/29 11:00:58;;;;;;;15.40;4.63;;;;;;;29.71;29.00;93740.22;2055743;69;20133;-79
2022/10/29 11:03:34;;;;;;;18.13;5.07;;;;;;;29.01;30.19;93739.03;2054927;69;20158;-79
2022/10/29 11:06:08;;;;;;;24.45;5.72;;;;;;;31.87;27.88;93736.88;2055308;69;20216;-78
2022/10/29 11:08:52;;;;;;;19.60;5.28;;;;;;;30.96;27.16;93735.50;2054756;69;20152;-80
2022/10/29 11:11:31;;;;;;;30.50;6.40;;;;;;;32.26;27.38;93737.47;2055205;69;20209;-79
2022/10/29 11:14:06;;;;;;;22.45;4.70;;;;;;;30.97;28.26;93725.31;2055135;69;20149;-78
2022/10/29 11:16:40;;;;;;;19.95;4.63;;;;;;;32.99;26.15;93736.34;2058598;69;20250;-80
2022/10/29 11:19:32;;;;;;;19.65;4.88;;;;;;;32.57;25.79;93734.38;2056692;69;20208;-79
2022/10/29 11:22:04;;;;;;;;;;;;;;;33.73;24.79;93739.34;2054538;69;20142;-77
2022/10/29 11:24:55;;;;;;;19.60;5.22;;;;;;;33.94;24.51;93721.56;2053811;70;20134;-78
2022/10/29 11:27:55;;;;;;;15.80;4.32;;;;;;;32.80;25.64;93718.19;2055290;69;20145;-78
2022/10/29 11:30:21;;;;;;;17.67;4.20;;;;;;;33.19;25.03;93714.28;2054363;69;20605;-79
2022/10/29 11:32:52;;;;;;;20.23;4.55;;;;;;;32.14;25.30;93708.38;2054811;69;20142;-78
2022/10/29 11:35:43;;;;;;;19.33;4.18;;;;;;;32.23;25.62;93703.25;2054973;69;20142;-80
2022/10/29 11:38:16;;;;;;;20.42;4.57;;;;;;;31.35;26.47;93689.72;2054744;69;20144;-81
2022/10/29 11:41:30;;;;;;;16.50;4.00;;;;;;;32.42;24.99;93686.41;2054551;69;20569;-78